sensor_id;sensor_type;location;lat;lon;timestamp;P1;durP1;ratioP1;P2;durP2;ratioP2
11078;SDS011;5592;49.234;7.268;2023-05-10T00:01:25;4.93;;;2.00;;
11078;SDS011;5592;49.234;7.268;2023-05-10T00:03:51;2.20;;;2.00;;
11078;SDS011;5592;49.234;7.268;2023-05-10T00:06:16;2.83;;;2.03;;
11078;SDS011;5592;49.234;7.268;2023-05-10T00:08:42;2.83;;;2.30;;
11078;SDS011;5592;49.234;7.268;2023-05-10T00:11:08;3.13;;;2.00;;
11078;SDS011;5592;49.234;7.268;2023-05-10T00:13:34;2.50;;;2.30;;
11078;SDS011;5592;49.234;7.268;2023-05-10T00:15:59;2.77;;;2.57;;
11078;SDS011;5592;49.234;7.268;2023-05-10T00:18:25;2.70;;;2.50;;
11078;SDS011;5592;49.234;7.268;2023-05-10T00:20:50;2.87;;;2.40;;
11078;SDS011;5592;49.234;7.268;2023-05-10T00:23:16;2.53;;;2.20;;
11078;SDS011;5592;49.234;7.268;2023-05-10T00:25:42;2.20;;;2.10;;
11078;SDS011;5592;49.234;7.268;2023-05-10T00:28:07;2.27;;;2.07;;
11078;SDS011;5592;49.234;7.268;2023-05-10T00:30:33;2.63;;;2.43;;
11078;SDS011;5592;49.234;7.268;2023-05-10T00:32:59;3.50;;;2.57;;
11078;SDS011;5592;49.234;7.268;2023-05-10T00:35:24;3.30;;;1.90;;
11078;SDS011;5592;49.234;7.268;2023-05-10T00:37:50;4.40;;;1.80;;
11078;SDS011;5592;49.234;7.268;2023-05-10T00:40:16;2.37;;;2.17;;
11078;SDS011;5592;49.234;7.268;2023-05-10T00:42:42;3.00;;;2.03;;
11078;SDS011;5592;49.234;7.268;2023-05-10T00:45:07;2.67;;;2.30;;
11078;SDS011;5592;49.234;7.268;2023-05-10T00:47:33;3.50;;;2.63;;
11078;SDS011;5592;49.234;7.268;2023-05-10T00:49:59;2.60;;;2.40;;
11078;SDS011;5592;49.234;7.268;2023-05-10T00:52:26;3.07;;;2.77;;
11078;SDS011;5592;49.234;7.268;2023-05-10T00:54:53;3.70;;;3.20;;
11078;SDS011;5592;49.234;7.268;2023-05-10T00:57:19;3.10;;;2.80;;
11078;SDS011;5592;49.234;7.268;2023-05-10T00:59:45;4.27;;;2.80;;
11078;SDS011;5592;49.234;7.268;2023-05-10T01:02:11;6.20;;;2.73;;
11078;SDS011;5592;49.234;7.268;2023-05-10T01:04:38;3.53;;;3.23;;
11078;SDS011;5592;49.234;7.268;2023-05-10T01:07:04;4.07;;;3.67;;
11078;SDS011;5592;49.234;7.268;2023-05-10T01:09:30;4.10;;;3.70;;
11078;SDS011;5592;49.234;7.268;2023-05-10T01:11:56;3.70;;;3.40;;
11078;SDS011;5592;49.234;7.268;2023-05-10T01:14:22;9.33;;;4.60;;
11078;SDS011;5592;49.234;7.268;2023-05-10T01:16:50;7.13;;;4.17;;
11078;SDS011;5592;49.234;7.268;2023-05-10T01:19:19;4.90;;;4.30;;
11078;SDS011;5592;49.234;7.268;2023-05-10T01:21:49;6.53;;;4.47;;
11078;SDS011;5592;49.234;7.268;2023-05-10T01:24:56;9.60;;;4.20;;
11078;SDS011;5592;49.234;7.268;2023-05-10T01:35:54;4.80;;;4.40;;
11078;SDS011;5592;49.234;7.268;2023-05-10T01:38:30;5.43;;;4.50;;
11078;SDS011;5592;49.234;7.268;2023-05-10T01:43:46;7.00;;;4.67;;
11078;SDS011;5592;49.234;7.268;2023-05-10T01:46:29;6.60;;;5.83;;
11078;SDS011;5592;49.234;7.268;2023-05-10T01:49:02;5.83;;;4.10;;
11078;SDS011;5592;49.234;7.268;2023-05-10T01:51:39;5.17;;;4.67;;
11078;SDS011;5592;49.234;7.268;2023-05-10T01:54:11;5.37;;;4.87;;
11078;SDS011;5592;49.234;7.268;2023-05-10T01:56:39;6.10;;;4.83;;
11078;SDS011;5592;49.234;7.268;2023-05-10T01:59:09;6.30;;;4.50;;
11078;SDS011;5592;49.234;7.268;2023-05-10T02:01:39;6.83;;;5.33;;
11078;SDS011;5592;49.234;7.268;2023-05-10T02:04:06;7.13;;;5.10;;
11078;SDS011;5592;49.234;7.268;2023-05-10T02:06:33;6.57;;;5.40;;
11078;SDS011;5592;49.234;7.268;2023-05-10T02:09:00;12.57;;;5.60;;
11078;SDS011;5592;49.234;7.268;2023-05-10T02:11:27;6.17;;;5.07;;
11078;SDS011;5592;49.234;7.268;2023-05-10T02:13:54;6.50;;;5.27;;
11078;SDS011;5592;49.234;7.268;2023-05-10T02:16:21;6.20;;;5.27;;
11078;SDS011;5592;49.234;7.268;2023-05-10T02:18:50;5.43;;;4.80;;
11078;SDS011;5592;49.234;7.268;2023-05-10T02:21:17;11.23;;;5.97;;
11078;SDS011;5592;49.234;7.268;2023-05-10T02:23:45;6.90;;;5.57;;
11078;SDS011;5592;49.234;7.268;2023-05-10T02:26:13;6.23;;;5.63;;
11078;SDS011;5592;49.234;7.268;2023-05-10T02:28:40;7.00;;;5.00;;
11078;SDS011;5592;49.234;7.268;2023-05-10T02:31:07;6.73;;;5.40;;
11078;SDS011;5592;49.234;7.268;2023-05-10T02:33:35;7.73;;;5.03;;
11078;SDS011;5592;49.234;7.268;2023-05-10T02:36:04;7.27;;;5.67;;
11078;SDS011;5592;49.234;7.268;2023-05-10T02:38:32;6.90;;;5.97;;
11078;SDS011;5592;49.234;7.268;2023-05-10T02:40:59;10.00;;;5.53;;
11078;SDS011;5592;49.234;7.268;2023-05-10T02:43:26;7.07;;;5.23;;
11078;SDS011;5592;49.234;7.268;2023-05-10T02:45:55;8.30;;;5.77;;
11078;SDS011;5592;49.234;7.268;2023-05-10T02:48:20;7.60;;;6.47;;
11078;SDS011;5592;49.234;7.268;2023-05-10T02:50:46;7.03;;;6.27;;
11078;SDS011;5592;49.234;7.268;2023-05-10T02:53:18;9.90;;;6.73;;
11078;SDS011;5592;49.234;7.268;2023-05-10T02:55:53;7.10;;;6.20;;
11078;SDS011;5592;49.234;7.268;2023-05-10T02:58:22;10.13;;;7.30;;
11078;SDS011;5592;49.234;7.268;2023-05-10T03:00:47;7.70;;;6.90;;
11078;SDS011;5592;49.234;7.268;2023-05-10T03:03:13;9.10;;;7.10;;
11078;SDS011;5592;49.234;7.268;2023-05-10T03:05:38;8.53;;;6.73;;
11078;SDS011;5592;49.234;7.268;2023-05-10T03:08:04;9.90;;;7.13;;
11078;SDS011;5592;49.234;7.268;2023-05-10T03:10:31;9.80;;;7.10;;
11078;SDS011;5592;49.234;7.268;2023-05-10T03:15:55;10.87;;;7.37;;
11078;SDS011;5592;49.234;7.268;2023-05-10T03:18:43;10.70;;;8.00;;
11078;SDS011;5592;49.234;7.268;2023-05-10T03:21:13;9.07;;;7.50;;
11078;SDS011;5592;49.234;7.268;2023-05-10T03:23:46;9.33;;;7.50;;
11078;SDS011;5592;49.234;7.268;2023-05-10T03:26:26;7.80;;;7.00;;
11078;SDS011;5592;49.234;7.268;2023-05-10T03:28:53;10.60;;;6.97;;
11078;SDS011;5592;49.234;7.268;2023-05-10T03:31:20;9.57;;;6.93;;
11078;SDS011;5592;49.234;7.268;2023-05-10T03:33:49;7.97;;;6.80;;
11078;SDS011;5592;49.234;7.268;2023-05-10T03:36:16;8.10;;;6.50;;
11078;SDS011;5592;49.234;7.268;2023-05-10T03:38:43;9.43;;;6.60;;
11078;SDS011;5592;49.234;7.268;2023-05-10T03:41:08;8.93;;;7.10;;
11078;SDS011;5592;49.234;7.268;2023-05-10T03:43:34;7.80;;;7.00;;
11078;SDS011;5592;49.234;7.268;2023-05-10T03:46:03;10.33;;;6.60;;
11078;SDS011;5592;49.234;7.268;2023-05-10T03:48:29;9.47;;;7.00;;
11078;SDS011;5592;49.234;7.268;2023-05-10T03:50:55;7.07;;;6.07;;
11078;SDS011;5592;49.234;7.268;2023-05-10T03:53:21;8.33;;;6.63;;
11078;SDS011;5592;49.234;7.268;2023-05-10T03:55:47;7.27;;;6.00;;
11078;SDS011;5592;49.234;7.268;2023-05-10T03:58:13;7.40;;;5.63;;
11078;SDS011;5592;49.234;7.268;2023-05-10T04:00:38;10.07;;;7.20;;
11078;SDS011;5592;49.234;7.268;2023-05-10T04:03:08;7.67;;;6.80;;
11078;SDS011;5592;49.234;7.268;2023-05-10T04:05:35;7.13;;;6.17;;
11078;SDS011;5592;49.234;7.268;2023-05-10T04:08:01;6.40;;;5.80;;
11078;SDS011;5592;49.234;7.268;2023-05-10T04:10:26;8.70;;;6.00;;
11078;SDS011;5592;49.234;7.268;2023-05-10T04:12:52;10.47;;;6.50;;
11078;SDS011;5592;49.234;7.268;2023-05-10T04:15:18;7.60;;;5.80;;
11078;SDS011;5592;49.234;7.268;2023-05-10T04:17:43;6.70;;;5.60;;
11078;SDS011;5592;49.234;7.268;2023-05-10T04:20:09;6.77;;;6.07;;
11078;SDS011;5592;49.234;7.268;2023-05-10T04:22:35;6.20;;;5.40;;
11078;SDS011;5592;49.234;7.268;2023-05-10T04:25:01;7.03;;;5.90;;
11078;SDS011;5592;49.234;7.268;2023-05-10T04:27:26;6.57;;;4.63;;
11078;SDS011;5592;49.234;7.268;2023-05-10T04:29:52;6.67;;;5.53;;
11078;SDS011;5592;49.234;7.268;2023-05-10T04:32:18;5.63;;;4.97;;
11078;SDS011;5592;49.234;7.268;2023-05-10T04:34:44;6.70;;;5.37;;
11078;SDS011;5592;49.234;7.268;2023-05-10T04:37:09;4.97;;;4.53;;
11078;SDS011;5592;49.234;7.268;2023-05-10T04:39:35;5.47;;;5.07;;
11078;SDS011;5592;49.234;7.268;2023-05-10T04:42:01;4.80;;;4.07;;
11078;SDS011;5592;49.234;7.268;2023-05-10T04:44:28;7.70;;;4.47;;
11078;SDS011;5592;49.234;7.268;2023-05-10T04:46:54;6.80;;;4.80;;
11078;SDS011;5592;49.234;7.268;2023-05-10T04:49:20;4.27;;;3.60;;
11078;SDS011;5592;49.234;7.268;2023-05-10T04:51:45;5.00;;;4.50;;
11078;SDS011;5592;49.234;7.268;2023-05-10T04:54:11;3.90;;;3.60;;
11078;SDS011;5592;49.234;7.268;2023-05-10T04:56:37;4.90;;;3.93;;
11078;SDS011;5592;49.234;7.268;2023-05-10T04:59:02;6.07;;;4.00;;
11078;SDS011;5592;49.234;7.268;2023-05-10T05:01:28;4.67;;;3.80;;
11078;SDS011;5592;49.234;7.268;2023-05-10T05:03:54;3.50;;;3.20;;
11078;SDS011;5592;49.234;7.268;2023-05-10T05:06:20;3.57;;;3.27;;
11078;SDS011;5592;49.234;7.268;2023-05-10T05:08:49;6.20;;;2.97;;
11078;SDS011;5592;49.234;7.268;2023-05-10T05:11:15;5.33;;;3.30;;
11078;SDS011;5592;49.234;7.268;2023-05-10T05:13:45;3.37;;;2.47;;
11078;SDS011;5592;49.234;7.268;2023-05-10T05:16:11;3.60;;;2.40;;
11078;SDS011;5592;49.234;7.268;2023-05-10T05:18:37;3.57;;;2.70;;
11078;SDS011;5592;49.234;7.268;2023-05-10T05:21:02;5.27;;;2.77;;
11078;SDS011;5592;49.234;7.268;2023-05-10T05:23:28;2.60;;;2.33;;
11078;SDS011;5592;49.234;7.268;2023-05-10T05:25:54;3.57;;;1.97;;
11078;SDS011;5592;49.234;7.268;2023-05-10T05:28:20;2.03;;;1.63;;
11078;SDS011;5592;49.234;7.268;2023-05-10T05:30:45;1.97;;;1.87;;
11078;SDS011;5592;49.234;7.268;2023-05-10T05:33:21;3.10;;;1.60;;
11078;SDS011;5592;49.234;7.268;2023-05-10T05:35:49;2.47;;;2.27;;
11078;SDS011;5592;49.234;7.268;2023-05-10T05:38:16;2.47;;;2.27;;
11078;SDS011;5592;49.234;7.268;2023-05-10T05:40:42;2.30;;;2.10;;
11078;SDS011;5592;49.234;7.268;2023-05-10T05:43:08;2.50;;;2.20;;
11078;SDS011;5592;49.234;7.268;2023-05-10T05:45:33;2.80;;;2.60;;
11078;SDS011;5592;49.234;7.268;2023-05-10T05:47:59;5.30;;;2.90;;
11078;SDS011;5592;49.234;7.268;2023-05-10T05:50:24;2.93;;;2.30;;
11078;SDS011;5592;49.234;7.268;2023-05-10T05:52:50;1.90;;;1.77;;
11078;SDS011;5592;49.234;7.268;2023-05-10T05:55:16;7.80;;;2.00;;
11078;SDS011;5592;49.234;7.268;2023-05-10T05:57:41;3.60;;;2.40;;
11078;SDS011;5592;49.234;7.268;2023-05-10T06:00:07;1.57;;;1.47;;
11078;SDS011;5592;49.234;7.268;2023-05-10T06:02:33;1.40;;;1.30;;
11078;SDS011;5592;49.234;7.268;2023-05-10T06:04:59;3.17;;;1.63;;
11078;SDS011;5592;49.234;7.268;2023-05-10T06:07:24;3.63;;;1.53;;
11078;SDS011;5592;49.234;7.268;2023-05-10T06:09:50;2.40;;;2.00;;
11078;SDS011;5592;49.234;7.268;2023-05-10T06:12:16;1.97;;;1.50;;
11078;SDS011;5592;49.234;7.268;2023-05-10T06:14:41;1.70;;;1.60;;
11078;SDS011;5592;49.234;7.268;2023-05-10T06:17:07;1.83;;;1.53;;
11078;SDS011;5592;49.234;7.268;2023-05-10T06:19:32;3.10;;;1.97;;
11078;SDS011;5592;49.234;7.268;2023-05-10T06:21:58;1.80;;;1.50;;
11078;SDS011;5592;49.234;7.268;2023-05-10T06:24:24;2.77;;;1.60;;
11078;SDS011;5592;49.234;7.268;2023-05-10T06:26:49;1.40;;;1.30;;
11078;SDS011;5592;49.234;7.268;2023-05-10T06:29:15;2.63;;;1.80;;
11078;SDS011;5592;49.234;7.268;2023-05-10T06:31:41;1.70;;;1.37;;
11078;SDS011;5592;49.234;7.268;2023-05-10T06:34:06;1.60;;;1.50;;
11078;SDS011;5592;49.234;7.268;2023-05-10T06:36:33;1.43;;;1.33;;
11078;SDS011;5592;49.234;7.268;2023-05-10T06:38:59;3.07;;;1.20;;
11078;SDS011;5592;49.234;7.268;2023-05-10T06:41:24;1.50;;;1.40;;
11078;SDS011;5592;49.234;7.268;2023-05-10T06:43:50;2.60;;;1.43;;
11078;SDS011;5592;49.234;7.268;2023-05-10T06:46:15;8.00;;;1.40;;
11078;SDS011;5592;49.234;7.268;2023-05-10T06:48:45;1.57;;;1.40;;
11078;SDS011;5592;49.234;7.268;2023-05-10T06:51:11;2.80;;;1.30;;
11078;SDS011;5592;49.234;7.268;2023-05-10T06:53:37;1.30;;;1.20;;
11078;SDS011;5592;49.234;7.268;2023-05-10T06:56:06;2.20;;;1.00;;
11078;SDS011;5592;49.234;7.268;2023-05-10T06:58:32;1.57;;;1.03;;
11078;SDS011;5592;49.234;7.268;2023-05-10T07:01:03;6.50;;;0.97;;
11078;SDS011;5592;49.234;7.268;2023-05-10T07:03:32;3.77;;;1.00;;
11078;SDS011;5592;49.234;7.268;2023-05-10T07:06:03;3.53;;;0.90;;
11078;SDS011;5592;49.234;7.268;2023-05-10T07:08:32;1.20;;;1.03;;
11078;SDS011;5592;49.234;7.268;2023-05-10T07:11:00;1.50;;;1.30;;
11078;SDS011;5592;49.234;7.268;2023-05-10T07:13:32;1.30;;;1.20;;
11078;SDS011;5592;49.234;7.268;2023-05-10T07:15:59;1.77;;;1.37;;
11078;SDS011;5592;49.234;7.268;2023-05-10T07:18:27;3.17;;;1.73;;
11078;SDS011;5592;49.234;7.268;2023-05-10T07:20:53;1.70;;;1.10;;
11078;SDS011;5592;49.234;7.268;2023-05-10T07:23:20;1.40;;;1.30;;
11078;SDS011;5592;49.234;7.268;2023-05-10T07:25:46;2.33;;;1.17;;
11078;SDS011;5592;49.234;7.268;2023-05-10T07:28:14;1.40;;;1.10;;
11078;SDS011;5592;49.234;7.268;2023-05-10T07:30:41;1.50;;;1.10;;
11078;SDS011;5592;49.234;7.268;2023-05-10T07:33:09;1.57;;;1.20;;
11078;SDS011;5592;49.234;7.268;2023-05-10T07:35:36;1.20;;;1.10;;
11078;SDS011;5592;49.234;7.268;2023-05-10T07:38:02;3.60;;;1.10;;
11078;SDS011;5592;49.234;7.268;2023-05-10T07:40:27;1.90;;;1.00;;
11078;SDS011;5592;49.234;7.268;2023-05-10T07:42:53;0.90;;;0.90;;
11078;SDS011;5592;49.234;7.268;2023-05-10T07:45:19;1.20;;;0.90;;
11078;SDS011;5592;49.234;7.268;2023-05-10T07:47:45;1.43;;;1.10;;
11078;SDS011;5592;49.234;7.268;2023-05-10T07:50:11;2.10;;;0.87;;
11078;SDS011;5592;49.234;7.268;2023-05-10T07:52:38;1.10;;;1.00;;
11078;SDS011;5592;49.234;7.268;2023-05-10T07:55:05;1.47;;;1.00;;
11078;SDS011;5592;49.234;7.268;2023-05-10T07:57:34;3.80;;;0.90;;
11078;SDS011;5592;49.234;7.268;2023-05-10T08:00:04;0.93;;;0.93;;
11078;SDS011;5592;49.234;7.268;2023-05-10T08:02:32;0.83;;;0.83;;
11078;SDS011;5592;49.234;7.268;2023-05-10T08:05:00;1.03;;;0.93;;
11078;SDS011;5592;49.234;7.268;2023-05-10T08:07:27;1.00;;;0.90;;
11078;SDS011;5592;49.234;7.268;2023-05-10T08:09:53;0.90;;;0.80;;
11078;SDS011;5592;49.234;7.268;2023-05-10T08:12:19;1.30;;;1.20;;
11078;SDS011;5592;49.234;7.268;2023-05-10T08:14:46;1.63;;;0.90;;
11078;SDS011;5592;49.234;7.268;2023-05-10T08:17:12;1.13;;;0.80;;
11078;SDS011;5592;49.234;7.268;2023-05-10T08:19:38;1.40;;;0.90;;
11078;SDS011;5592;49.234;7.268;2023-05-10T08:22:18;3.27;;;1.10;;
11078;SDS011;5592;49.234;7.268;2023-05-10T08:27:19;1.10;;;1.00;;
11078;SDS011;5592;49.234;7.268;2023-05-10T08:29:45;2.20;;;1.00;;
11078;SDS011;5592;49.234;7.268;2023-05-10T08:32:13;3.47;;;1.30;;
11078;SDS011;5592;49.234;7.268;2023-05-10T08:34:40;4.13;;;2.00;;
11078;SDS011;5592;49.234;7.268;2023-05-10T08:37:07;2.20;;;1.07;;
11078;SDS011;5592;49.234;7.268;2023-05-10T08:39:37;1.53;;;1.10;;
11078;SDS011;5592;49.234;7.268;2023-05-10T08:42:04;2.93;;;1.47;;
11078;SDS011;5592;49.234;7.268;2023-05-10T08:44:34;1.90;;;1.10;;
11078;SDS011;5592;49.234;7.268;2023-05-10T08:47:04;1.50;;;1.07;;
11078;SDS011;5592;49.234;7.268;2023-05-10T08:49:33;5.17;;;1.40;;
11078;SDS011;5592;49.234;7.268;2023-05-10T08:51:59;3.43;;;1.40;;
11078;SDS011;5592;49.234;7.268;2023-05-10T08:54:29;3.33;;;1.33;;
11078;SDS011;5592;49.234;7.268;2023-05-10T08:56:58;3.53;;;1.43;;
11078;SDS011;5592;49.234;7.268;2023-05-10T08:59:26;1.53;;;1.00;;
11078;SDS011;5592;49.234;7.268;2023-05-10T09:01:52;2.97;;;1.00;;
11078;SDS011;5592;49.234;7.268;2023-05-10T09:04:20;2.80;;;1.03;;
11078;SDS011;5592;49.234;7.268;2023-05-10T09:06:47;3.20;;;1.10;;
11078;SDS011;5592;49.234;7.268;2023-05-10T09:09:13;2.50;;;1.20;;
11078;SDS011;5592;49.234;7.268;2023-05-10T09:11:41;4.93;;;1.40;;
11078;SDS011;5592;49.234;7.268;2023-05-10T09:14:10;5.70;;;1.80;;
11078;SDS011;5592;49.234;7.268;2023-05-10T09:16:38;3.37;;;1.27;;
11078;SDS011;5592;49.234;7.268;2023-05-10T09:19:04;2.33;;;1.20;;
11078;SDS011;5592;49.234;7.268;2023-05-10T09:21:31;1.50;;;1.23;;
11078;SDS011;5592;49.234;7.268;2023-05-10T09:24:02;3.63;;;1.60;;
11078;SDS011;5592;49.234;7.268;2023-05-10T09:26:28;1.43;;;1.20;;
11078;SDS011;5592;49.234;7.268;2023-05-10T09:28:55;3.10;;;1.30;;
11078;SDS011;5592;49.234;7.268;2023-05-10T09:31:22;2.37;;;1.10;;
11078;SDS011;5592;49.234;7.268;2023-05-10T09:33:52;8.00;;;1.33;;
11078;SDS011;5592;49.234;7.268;2023-05-10T09:36:21;3.50;;;1.30;;
11078;SDS011;5592;49.234;7.268;2023-05-10T09:38:51;3.60;;;1.23;;
11078;SDS011;5592;49.234;7.268;2023-05-10T09:41:23;3.03;;;1.33;;
11078;SDS011;5592;49.234;7.268;2023-05-10T09:43:50;1.70;;;1.10;;
11078;SDS011;5592;49.234;7.268;2023-05-10T09:46:23;1.93;;;1.20;;
11078;SDS011;5592;49.234;7.268;2023-05-10T09:48:48;3.10;;;1.20;;
11078;SDS011;5592;49.234;7.268;2023-05-10T09:51:24;8.30;;;1.50;;
11078;SDS011;5592;49.234;7.268;2023-05-10T09:56:40;6.03;;;1.10;;
11078;SDS011;5592;49.234;7.268;2023-05-10T09:59:07;2.20;;;0.93;;
11078;SDS011;5592;49.234;7.268;2023-05-10T10:01:35;1.80;;;0.97;;
11078;SDS011;5592;49.234;7.268;2023-05-10T10:04:05;2.47;;;0.87;;
11078;SDS011;5592;49.234;7.268;2023-05-10T10:06:37;6.10;;;1.00;;
11078;SDS011;5592;49.234;7.268;2023-05-10T10:09:04;3.03;;;1.00;;
11078;SDS011;5592;49.234;7.268;2023-05-10T10:11:31;1.10;;;0.90;;
11078;SDS011;5592;49.234;7.268;2023-05-10T10:13:58;3.30;;;1.00;;
11078;SDS011;5592;49.234;7.268;2023-05-10T10:16:24;4.23;;;1.33;;
11078;SDS011;5592;49.234;7.268;2023-05-10T10:18:51;1.57;;;1.20;;
11078;SDS011;5592;49.234;7.268;2023-05-10T10:21:17;2.13;;;1.17;;
11078;SDS011;5592;49.234;7.268;2023-05-10T10:23:46;3.13;;;0.93;;
11078;SDS011;5592;49.234;7.268;2023-05-10T10:26:11;2.40;;;0.90;;
11078;SDS011;5592;49.234;7.268;2023-05-10T10:34:07;1.00;;;0.80;;
11078;SDS011;5592;49.234;7.268;2023-05-10T10:36:47;3.90;;;1.23;;
11078;SDS011;5592;49.234;7.268;2023-05-10T10:39:13;2.77;;;0.90;;
11078;SDS011;5592;49.234;7.268;2023-05-10T10:41:40;2.23;;;0.90;;
11078;SDS011;5592;49.234;7.268;2023-05-10T10:49:27;2.50;;;0.87;;
11078;SDS011;5592;49.234;7.268;2023-05-10T10:55:15;2.50;;;0.80;;
11078;SDS011;5592;49.234;7.268;2023-05-10T10:57:51;2.00;;;1.03;;
11078;SDS011;5592;49.234;7.268;2023-05-10T11:00:27;5.40;;;0.93;;
11078;SDS011;5592;49.234;7.268;2023-05-10T11:02:56;1.57;;;0.90;;
11078;SDS011;5592;49.234;7.268;2023-05-10T11:05:47;6.43;;;1.00;;
11078;SDS011;5592;49.234;7.268;2023-05-10T11:08:27;1.13;;;1.03;;
11078;SDS011;5592;49.234;7.268;2023-05-10T11:11:03;1.80;;;0.90;;
11078;SDS011;5592;49.234;7.268;2023-05-10T11:21:33;3.83;;;0.90;;
11078;SDS011;5592;49.234;7.268;2023-05-10T11:23:59;3.00;;;1.10;;
11078;SDS011;5592;49.234;7.268;2023-05-10T11:26:31;0.90;;;0.73;;
11078;SDS011;5592;49.234;7.268;2023-05-10T11:28:58;1.33;;;0.80;;
11078;SDS011;5592;49.234;7.268;2023-05-10T11:31:27;2.13;;;0.90;;
11078;SDS011;5592;49.234;7.268;2023-05-10T11:33:57;1.60;;;1.03;;
11078;SDS011;5592;49.234;7.268;2023-05-10T11:36:24;5.43;;;0.90;;
11078;SDS011;5592;49.234;7.268;2023-05-10T11:38:51;3.73;;;0.97;;
11078;SDS011;5592;49.234;7.268;2023-05-10T11:41:17;3.07;;;0.97;;
11078;SDS011;5592;49.234;7.268;2023-05-10T11:43:46;3.73;;;1.27;;
11078;SDS011;5592;49.234;7.268;2023-05-10T11:46:18;1.30;;;1.00;;
11078;SDS011;5592;49.234;7.268;2023-05-10T11:48:45;3.37;;;1.30;;
11078;SDS011;5592;49.234;7.268;2023-05-10T11:51:12;1.70;;;0.87;;
11078;SDS011;5592;49.234;7.268;2023-05-10T11:53:37;2.07;;;0.80;;
11078;SDS011;5592;49.234;7.268;2023-05-10T11:56:09;1.70;;;0.87;;
11078;SDS011;5592;49.234;7.268;2023-05-10T11:58:36;2.90;;;1.10;;
11078;SDS011;5592;49.234;7.268;2023-05-10T12:01:06;0.90;;;0.90;;
11078;SDS011;5592;49.234;7.268;2023-05-10T12:03:32;2.17;;;1.10;;
11078;SDS011;5592;49.234;7.268;2023-05-10T12:05:59;1.43;;;0.90;;
11078;SDS011;5592;49.234;7.268;2023-05-10T12:08:26;2.17;;;0.93;;
11078;SDS011;5592;49.234;7.268;2023-05-10T12:11:13;4.37;;;0.90;;
11078;SDS011;5592;49.234;7.268;2023-05-10T12:13:40;1.80;;;0.97;;
11078;SDS011;5592;49.234;7.268;2023-05-10T12:16:15;2.30;;;1.10;;
11078;SDS011;5592;49.234;7.268;2023-05-10T12:18:41;1.20;;;0.83;;
11078;SDS011;5592;49.234;7.268;2023-05-10T12:21:13;2.20;;;0.93;;
11078;SDS011;5592;49.234;7.268;2023-05-10T12:23:40;2.47;;;1.10;;
11078;SDS011;5592;49.234;7.268;2023-05-10T12:26:08;5.90;;;1.30;;
11078;SDS011;5592;49.234;7.268;2023-05-10T12:28:36;0.83;;;0.70;;
11078;SDS011;5592;49.234;7.268;2023-05-10T12:34:32;1.00;;;0.80;;
11078;SDS011;5592;49.234;7.268;2023-05-10T12:36:59;0.87;;;0.77;;
11078;SDS011;5592;49.234;7.268;2023-05-10T12:39:25;2.50;;;0.80;;
11078;SDS011;5592;49.234;7.268;2023-05-10T12:41:51;1.33;;;0.90;;
11078;SDS011;5592;49.234;7.268;2023-05-10T12:44:17;1.50;;;0.97;;
11078;SDS011;5592;49.234;7.268;2023-05-10T12:46:43;3.47;;;1.00;;
11078;SDS011;5592;49.234;7.268;2023-05-10T12:49:09;1.90;;;0.80;;
11078;SDS011;5592;49.234;7.268;2023-05-10T12:51:35;1.57;;;0.80;;
11078;SDS011;5592;49.234;7.268;2023-05-10T12:54:02;1.10;;;1.00;;
11078;SDS011;5592;49.234;7.268;2023-05-10T12:56:27;3.47;;;1.13;;
11078;SDS011;5592;49.234;7.268;2023-05-10T12:58:53;1.10;;;0.73;;
11078;SDS011;5592;49.234;7.268;2023-05-10T13:01:21;1.17;;;1.07;;
11078;SDS011;5592;49.234;7.268;2023-05-10T13:03:47;2.00;;;0.90;;
11078;SDS011;5592;49.234;7.268;2023-05-10T13:06:13;2.20;;;0.90;;
11078;SDS011;5592;49.234;7.268;2023-05-10T13:08:39;0.90;;;0.80;;
11078;SDS011;5592;49.234;7.268;2023-05-10T13:11:05;1.60;;;0.73;;
11078;SDS011;5592;49.234;7.268;2023-05-10T13:13:33;2.40;;;0.80;;
11078;SDS011;5592;49.234;7.268;2023-05-10T13:15:59;2.50;;;1.33;;
11078;SDS011;5592;49.234;7.268;2023-05-10T13:18:25;0.87;;;0.87;;
11078;SDS011;5592;49.234;7.268;2023-05-10T13:20:51;1.00;;;0.73;;
11078;SDS011;5592;49.234;7.268;2023-05-10T13:23:16;3.20;;;0.90;;
11078;SDS011;5592;49.234;7.268;2023-05-10T13:25:42;1.80;;;1.00;;
11078;SDS011;5592;49.234;7.268;2023-05-10T13:28:07;1.43;;;1.00;;
11078;SDS011;5592;49.234;7.268;2023-05-10T13:30:33;1.67;;;0.90;;
11078;SDS011;5592;49.234;7.268;2023-05-10T13:32:59;2.93;;;1.03;;
11078;SDS011;5592;49.234;7.268;2023-05-10T13:35:25;3.37;;;0.80;;
11078;SDS011;5592;49.234;7.268;2023-05-10T13:37:50;1.23;;;0.80;;
11078;SDS011;5592;49.234;7.268;2023-05-10T13:40:18;1.80;;;1.10;;
11078;SDS011;5592;49.234;7.268;2023-05-10T13:42:46;1.63;;;0.87;;
11078;SDS011;5592;49.234;7.268;2023-05-10T13:45:12;3.13;;;0.90;;
11078;SDS011;5592;49.234;7.268;2023-05-10T13:47:38;3.23;;;1.13;;
11078;SDS011;5592;49.234;7.268;2023-05-10T13:50:03;2.60;;;1.40;;
11078;SDS011;5592;49.234;7.268;2023-05-10T13:52:29;1.13;;;0.90;;
11078;SDS011;5592;49.234;7.268;2023-05-10T13:54:55;3.17;;;0.80;;
11078;SDS011;5592;49.234;7.268;2023-05-10T13:57:22;2.20;;;0.90;;
11078;SDS011;5592;49.234;7.268;2023-05-10T13:59:48;1.57;;;1.20;;
11078;SDS011;5592;49.234;7.268;2023-05-10T14:02:14;2.40;;;1.00;;
11078;SDS011;5592;49.234;7.268;2023-05-10T14:04:40;2.10;;;0.93;;
11078;SDS011;5592;49.234;7.268;2023-05-10T14:07:05;1.90;;;0.93;;
11078;SDS011;5592;49.234;7.268;2023-05-10T14:09:31;4.50;;;0.80;;
11078;SDS011;5592;49.234;7.268;2023-05-10T14:11:57;0.67;;;0.67;;
11078;SDS011;5592;49.234;7.268;2023-05-10T14:14:22;1.63;;;0.77;;
11078;SDS011;5592;49.234;7.268;2023-05-10T14:16:48;3.23;;;1.40;;
11078;SDS011;5592;49.234;7.268;2023-05-10T14:19:13;1.10;;;0.90;;
11078;SDS011;5592;49.234;7.268;2023-05-10T14:21:39;2.00;;;0.80;;
11078;SDS011;5592;49.234;7.268;2023-05-10T14:24:05;2.50;;;0.80;;
11078;SDS011;5592;49.234;7.268;2023-05-10T14:26:32;0.90;;;0.80;;
11078;SDS011;5592;49.234;7.268;2023-05-10T14:28:59;1.10;;;0.73;;
11078;SDS011;5592;49.234;7.268;2023-05-10T14:31:25;1.27;;;0.80;;
11078;SDS011;5592;49.234;7.268;2023-05-10T14:33:50;1.90;;;1.00;;
11078;SDS011;5592;49.234;7.268;2023-05-10T14:36:17;4.10;;;0.80;;
11078;SDS011;5592;49.234;7.268;2023-05-10T14:38:42;3.03;;;1.20;;
11078;SDS011;5592;49.234;7.268;2023-05-10T14:41:08;0.83;;;0.70;;
11078;SDS011;5592;49.234;7.268;2023-05-10T14:43:34;1.97;;;0.70;;
11078;SDS011;5592;49.234;7.268;2023-05-10T14:46:00;0.83;;;0.70;;
11078;SDS011;5592;49.234;7.268;2023-05-10T14:48:25;1.00;;;0.73;;
11078;SDS011;5592;49.234;7.268;2023-05-10T14:50:51;1.07;;;0.97;;
11078;SDS011;5592;49.234;7.268;2023-05-10T14:53:17;0.87;;;0.70;;
11078;SDS011;5592;49.234;7.268;2023-05-10T14:55:43;1.70;;;0.80;;
11078;SDS011;5592;49.234;7.268;2023-05-10T14:58:08;0.90;;;0.70;;
11078;SDS011;5592;49.234;7.268;2023-05-10T15:00:34;1.27;;;0.80;;
11078;SDS011;5592;49.234;7.268;2023-05-10T15:03:00;1.63;;;0.80;;
11078;SDS011;5592;49.234;7.268;2023-05-10T15:05:26;2.40;;;0.90;;
11078;SDS011;5592;49.234;7.268;2023-05-10T15:07:51;3.77;;;1.23;;
11078;SDS011;5592;49.234;7.268;2023-05-10T15:10:17;0.90;;;0.73;;
11078;SDS011;5592;49.234;7.268;2023-05-10T15:12:43;2.47;;;0.83;;
11078;SDS011;5592;49.234;7.268;2023-05-10T15:15:08;1.00;;;0.90;;
11078;SDS011;5592;49.234;7.268;2023-05-10T15:17:34;1.00;;;0.80;;
11078;SDS011;5592;49.234;7.268;2023-05-10T15:20:00;3.70;;;0.67;;
11078;SDS011;5592;49.234;7.268;2023-05-10T15:22:28;0.93;;;0.80;;
11078;SDS011;5592;49.234;7.268;2023-05-10T15:24:54;0.60;;;0.60;;
11078;SDS011;5592;49.234;7.268;2023-05-10T15:27:19;1.63;;;0.60;;
11078;SDS011;5592;49.234;7.268;2023-05-10T15:29:45;0.90;;;0.70;;
11078;SDS011;5592;49.234;7.268;2023-05-10T15:32:11;1.43;;;0.70;;
11078;SDS011;5592;49.234;7.268;2023-05-10T15:34:37;2.50;;;0.83;;
11078;SDS011;5592;49.234;7.268;2023-05-10T15:37:02;1.43;;;1.00;;
11078;SDS011;5592;49.234;7.268;2023-05-10T15:39:28;0.63;;;0.63;;
11078;SDS011;5592;49.234;7.268;2023-05-10T15:41:53;1.50;;;0.87;;
11078;SDS011;5592;49.234;7.268;2023-05-10T15:44:19;2.77;;;1.10;;
11078;SDS011;5592;49.234;7.268;2023-05-10T15:46:45;1.13;;;0.90;;